Time;durP1;ratioP1;P1;durP2;ratioP2;P2;SDS_P1;SDS_P2;PMS_P1;PMS_P2;Temp;Humidity;BMP_temperature;BMP_pressure;BME280_temperature;BME280_humidity;BME280_pressure;Samples;Min_cycle;Max_cycle;Signal;HPM_P1;HPM_P2
2022/09/15 00:00:41;;;;;;;37.75;26.00;;;;;;;-142.57;100.00;68379.81;5055808;28;20387;-77
2022/09/15 00:03:06;;;;;;;31.63;28.35;;;;;;;-142.57;100.00;68379.81;5059035;28;20129;-78
2022/09/15 00:05:31;;;;;;;31.80;28.10;;;;;;;-142.57;100.00;68379.81;5052843;28;20028;-77
2022/09/15 00:07:57;;;;;;;40.75;32.55;;;;;;;-142.57;100.00;68379.81;5054098;28;20032;-76
2022/09/15 00:10:22;;;;;;;32.97;28.77;;;;;;;-142.57;100.00;68379.81;5051364;28;20140;-77
2022/09/15 00:12:47;;;;;;;35.63;29.67;;;;;;;-142.57;100.00;68379.81;5052037;28;20438;-76
2022/09/15 00:15:14;;;;;;;39.67;32.40;;;;;;;-142.57;100.00;68379.81;5051671;28;20029;-77
2022/09/15 00:17:41;;;;;;;33.38;28.83;;;;;;;-142.57;100.00;68379.81;5048593;28;20100;-78
2022/09/15 00:20:07;;;;;;;34.55;27.50;;;;;;;-142.57;100.00;68379.81;5050522;28;20033;-77
2022/09/15 00:22:32;;;;;;;36.75;30.67;;;;;;;-142.57;100.00;68379.81;5049990;28;20039;-76
2022/09/15 00:24:57;;;;;;;38.63;31.08;;;;;;;-142.57;100.00;68379.81;5036993;28;20446;-76
2022/09/15 00:27:23;;;;;;;40.30;30.83;;;;;;;-142.57;100.00;68379.81;5051631;28;20060;-76
2022/09/15 00:29:48;;;;;;;33.60;27.70;;;;;;;-142.57;100.00;68379.81;5064509;28;20021;-77
2022/09/15 00:32:13;;;;;;;35.63;31.80;;;;;;;-142.57;100.00;68379.81;5050820;28;20444;-76
2022/09/15 00:34:39;;;;;;;35.58;28.10;;;;;;;-142.57;100.00;68379.81;5049135;28;20543;-76
2022/09/15 00:37:05;;;;;;;33.78;30.02;;;;;;;-142.57;100.00;68379.81;5044532;28;20030;-76
2022/09/15 00:39:30;;;;;;;40.03;31.92;;;;;;;-142.57;100.00;68379.81;5044930;28;20028;-75
2022/09/15 00:41:55;;;;;;;40.33;31.67;;;;;;;-142.57;100.00;68379.81;5038601;28;20109;-76
2022/09/15 00:44:21;;;;;;;34.72;30.08;;;;;;;-142.57;100.00;68379.81;5070129;28;20024;-76
2022/09/15 00:46:49;;;;;;;30.90;24.88;;;;;;;-142.57;100.00;68379.81;5052317;28;20036;-76
2022/09/15 00:49:15;;;;;;;28.95;25.00;;;;;;;-142.57;100.00;68379.81;5032625;28;20112;-76
2022/09/15 00:51:50;;;;;;;34.45;27.45;;;;;;;-142.57;100.00;68379.81;5049925;28;20191;-77
2022/09/15 00:54:16;;;;;;;;;;;;;;;-142.57;100.00;68379.81;5051297;28;20526;-78
2022/09/15 00:56:43;;;;;;;34.47;28.35;;;;;;;-142.57;100.00;68379.81;5068217;28;19917;-78
2022/09/15 00:59:12;;;;;;;34.38;29.25;;;;;;;-142.57;100.00;68379.81;5049768;28;20379;-78
2022/09/15 01:01:38;;;;;;;29.50;26.15;;;;;;;-142.57;100.00;68379.81;5051226;28;20368;-78
2022/09/15 01:04:04;;;;;;;33.55;27.25;;;;;;;-142.57;100.00;68379.81;5082053;28;20029;-78
2022/09/15 01:06:35;;;;;;;33.50;27.60;;;;;;;-142.57;100.00;68379.81;5051408;28;20040;-79
2022/09/15 01:09:14;;;;;;;27.67;24.52;;;;;;;-142.57;100.00;68379.81;5062929;28;20725;-79
2022/09/15 01:11:40;;;;;;;26.98;24.13;;;;;;;-142.57;100.00;68379.81;5051315;28;20037;-79
2022/09/15 01:14:06;;;;;;;33.72;24.42;;;;;;;-142.57;100.00;68379.81;5049618;28;20029;-79
2022/09/15 01:16:37;;;;;;;25.30;22.60;;;;;;;-142.57;100.00;68379.81;5057392;28;20032;-77
2022/09/15 01:19:40;;;;;;;24.98;20.67;;;;;;;-142.57;100.00;68379.81;5059275;28;20040;-79
2022/09/15 01:22:24;;;;;;;27.50;23.52;;;;;;;-142.57;100.00;68379.81;5055251;28;20051;-78
2022/09/15 01:25:07;;;;;;;37.47;22.47;;;;;;;-142.57;100.00;68379.81;5041434;28;20037;-80
2022/09/15 01:28:02;;;;;;;31.10;24.45;;;;;;;-142.57;100.00;68379.81;5054623;28;20064;-80
2022/09/15 01:30:38;;;;;;;32.33;25.13;;;;;;;-142.57;100.00;68379.81;5065701;28;20032;-79
2022/09/15 01:33:18;;;;;;;32.53;21.58;;;;;;;-142.57;100.00;68379.81;5054420;28;20025;-76
2022/09/15 01:35:54;;;;;;;25.92;23.23;;;;;;;-142.57;100.00;68379.81;5049458;28;20128;-77
2022/09/15 01:38:45;;;;;;;29.55;23.00;;;;;;;-142.57;100.00;68379.81;5053307;28;20049;-78
2022/09/15 01:41:15;;;;;;;24.52;21.30;;;;;;;-142.57;100.00;68379.81;5054269;28;20036;-78
2022/09/15 01:43:47;;;;;;;27.10;21.92;;;;;;;-142.57;100.00;68379.81;5053242;28;20060;-78
2022/09/15 01:46:13;;;;;;;23.48;20.98;;;;;;;-142.57;100.00;68379.81;5064245;28;20036;-78
2022/09/15 01:48:40;;;;;;;28.70;22.23;;;;;;;-142.57;100.00;68379.81;5048950;28;20166;-77
2022/09/15 01:51:06;;;;;;;24.85;21.25;;;;;;;-142.57;100.00;68379.81;5061832;28;20025;-78
2022/09/15 01:53:32;;;;;;;26.00;21.88;;;;;;;-142.57;100.00;68379.81;5053356;28;20047;-79
2022/09/15 01:56:09;;;;;;;27.38;21.88;;;;;;;-142.57;100.00;68379.81;5033576;28;20033;-79
2022/09/15 01:58:36;;;;;;;32.17;22.77;;;;;;;-142.57;100.00;68379.81;5068910;28;20098;-78
2022/09/15 02:01:25;;;;;;;28.55;23.77;;;;;;;-142.57;100.00;68379.81;5053015;28;20459;-76
2022/09/15 02:03:50;;;;;;;32.20;23.73;;;;;;;-142.57;100.00;68379.81;5060290;28;20037;-77
2022/09/15 02:06:35;;;;;;;26.45;20.83;;;;;;;-142.57;100.00;68379.81;5050370;28;20024;-79
2022/09/15 02:09:13;;;;;;;28.33;21.95;;;;;;;-142.57;100.00;68379.81;5053587;28;20083;-78
2022/09/15 02:12:01;;;;;;;37.83;24.90;;;;;;;-142.57;100.00;68379.81;5043791;28;20033;-77
2022/09/15 02:14:47;;;;;;;31.55;23.33;;;;;;;-142.57;100.00;68379.81;5047168;28;20044;-77
2022/09/15 02:17:14;;;;;;;41.35;24.17;;;;;;;-142.57;100.00;68379.81;5052034;28;20033;-77
2022/09/15 02:19:44;;;;;;;33.42;26.17;;;;;;;-142.57;100.00;68379.81;5070153;28;20040;-77
2022/09/15 02:22:26;;;;;;;27.88;23.98;;;;;;;-142.57;100.00;68379.81;5057918;28;20041;-77
2022/09/15 02:25:01;;;;;;;34.40;26.63;;;;;;;-142.57;100.00;68379.81;5052586;28;20120;-77
2022/09/15 02:27:27;;;;;;;;;;;;;;;-142.57;100.00;68379.81;5086926;28;21477;-76
2022/09/15 02:29:55;;;;;;;38.45;26.80;;;;;;;-142.57;100.00;68379.81;5086419;28;19916;-76
2022/09/15 02:32:22;;;;;;;37.45;27.05;;;;;;;-142.57;100.00;68379.81;5081924;28;20029;-75
2022/09/15 02:34:50;;;;;;;36.30;28.10;;;;;;;-142.57;100.00;68379.81;5043397;28;20036;-77
2022/09/15 02:37:17;;;;;;;37.45;29.00;;;;;;;-142.57;100.00;68379.81;5044187;28;20025;-76
2022/09/15 02:39:47;;;;;;;32.40;26.27;;;;;;;-142.57;100.00;68379.81;5084147;28;20599;-77
2022/09/15 02:42:24;;;;;;;43.78;26.15;;;;;;;-142.57;100.00;68379.81;5052176;28;20395;-78
2022/09/15 02:44:49;;;;;;;38.90;29.55;;;;;;;-142.57;100.00;68379.81;5078611;28;20387;-77
2022/09/15 02:47:15;;;;;;;35.72;27.63;;;;;;;-142.57;100.00;68379.81;5053589;28;20037;-77
2022/09/15 02:49:40;;;;;;;39.65;28.98;;;;;;;-142.57;100.00;68379.81;5046392;28;20037;-79
2022/09/15 02:52:06;;;;;;;36.00;27.30;;;;;;;-142.57;100.00;68379.81;5048796;28;20078;-77
2022/09/15 02:54:31;;;;;;;30.15;26.60;;;;;;;-142.57;100.00;68379.81;5095166;28;20025;-77
2022/09/15 02:56:58;;;;;;;39.60;27.42;;;;;;;-142.57;100.00;68379.81;5060409;28;20035;-79
2022/09/15 02:59:24;;;;;;;37.05;26.25;;;;;;;-142.57;100.00;68379.81;5053112;28;20033;-78
2022/09/15 03:01:50;;;;;;;33.45;26.60;;;;;;;-142.57;100.00;68379.81;5053184;28;20048;-79
2022/09/15 03:04:16;;;;;;;30.73;27.25;;;;;;;-142.57;100.00;68379.81;5053524;28;20033;-78
2022/09/15 03:06:42;;;;;;;36.50;27.98;;;;;;;-142.57;100.00;68379.81;5048177;28;20442;-79
2022/09/15 03:09:08;;;;;;;35.30;31.17;;;;;;;-142.57;100.00;68379.81;5048939;28;20036;-76
2022/09/15 03:11:33;;;;;;;36.20;30.30;;;;;;;-142.57;100.00;68379.81;5065643;28;20060;-75
2022/09/15 03:14:01;;;;;;;39.85;29.73;;;;;;;-142.57;100.00;68379.81;5050113;28;20037;-77
2022/09/15 03:16:28;;;;;;;37.60;30.40;;;;;;;-142.57;100.00;68379.81;5055829;28;20027;-75
2022/09/15 03:18:55;;;;;;;33.22;29.70;;;;;;;-142.57;100.00;68379.81;5051804;28;20029;-78
2022/09/15 03:21:21;;;;;;;32.92;27.50;;;;;;;-142.57;100.00;68379.81;5065325;28;20029;-79
2022/09/15 03:23:46;;;;;;;30.38;27.17;;;;;;;-142.57;100.00;68379.81;5052323;28;20036;-79
2022/09/15 03:26:12;;;;;;;32.22;24.10;;;;;;;-142.57;100.00;68379.81;5051652;28;20542;-78
2022/09/15 03:28:38;;;;;;;36.45;27.77;;;;;;;-142.57;100.00;68379.81;5066101;28;20033;-78
2022/09/15 03:31:04;;;;;;;30.08;26.77;;;;;;;-142.57;100.00;68379.81;5052828;28;20033;-77
2022/09/15 03:33:30;;;;;;;34.47;26.55;;;;;;;-142.57;100.00;68379.81;5052275;28;20031;-80
2022/09/15 03:35:55;;;;;;;28.33;25.30;;;;;;;-142.57;100.00;68379.81;5059940;28;20032;-80
2022/09/15 03:38:20;;;;;;;31.55;26.38;;;;;;;-142.57;100.00;68379.81;5057663;28;20364;-79
2022/09/15 03:40:57;;;;;;;36.45;26.20;;;;;;;-142.57;100.00;68379.81;5051274;28;20036;-79
2022/09/15 03:43:22;;;;;;;33.17;24.75;;;;;;;-142.57;100.00;68379.81;5052273;28;20044;-79
2022/09/15 03:45:47;;;;;;;30.52;26.58;;;;;;;-142.57;100.00;68379.81;5055409;28;20025;-81
2022/09/15 03:48:13;;;;;;;35.05;28.63;;;;;;;-142.57;100.00;68379.81;5062719;28;20027;-77
2022/09/15 03:50:38;;;;;;;33.10;28.92;;;;;;;-142.57;100.00;68379.81;5066162;28;20402;-80
2022/09/15 03:53:03;;;;;;;30.50;27.30;;;;;;;-142.57;100.00;68379.81;5050795;28;20020;-78
2022/09/15 03:55:29;;;;;;;34.58;28.65;;;;;;;-142.57;100.00;68379.81;5051517;28;20025;-80
2022/09/15 03:57:54;;;;;;;34.50;27.25;;;;;;;-142.57;100.00;68379.81;5066399;28;20029;-78
2022/09/15 04:00:21;;;;;;;40.80;29.65;;;;;;;-142.57;100.00;68379.81;5060171;28;20505;-78
2022/09/15 04:02:46;;;;;;;42.15;31.25;;;;;;;-142.57;100.00;68379.81;5050931;28;20134;-78
2022/09/15 04:05:12;;;;;;;39.67;29.60;;;;;;;-142.57;100.00;68379.81;5056562;28;20056;-78
2022/09/15 04:07:40;;;;;;;34.65;30.55;;;;;;;-142.57;100.00;68379.81;5047826;28;20033;-78
2022/09/15 04:10:07;;;;;;;35.08;30.60;;;;;;;-142.57;100.00;68379.81;5043863;28;20494;-80
2022/09/15 04:12:33;;;;;;;38.42;31.70;;;;;;;-142.57;100.00;68379.81;5075957;28;20086;-80
2022/09/15 04:14:59;;;;;;;46.47;33.83;;;;;;;-142.57;100.00;68379.81;5041509;28;20455;-80
2022/09/15 04:17:24;;;;;;;40.92;32.47;;;;;;;-142.57;100.00;68379.81;5061204;28;20427;-81
2022/09/15 04:19:50;;;;;;;36.72;32.42;;;;;;;-142.57;100.00;68379.81;5083641;28;20025;-80
2022/09/15 04:22:15;;;;;;;54.83;37.80;;;;;;;-142.57;100.00;68379.81;5050415;28;20159;-79
2022/09/15 04:24:41;;;;;;;40.58;33.08;;;;;;;-142.57;100.00;68379.81;5051396;28;20025;-79
2022/09/15 04:27:06;;;;;;;42.72;35.10;;;;;;;-142.57;100.00;68379.81;5041570;28;20034;-80
2022/09/15 04:29:32;;;;;;;39.63;35.33;;;;;;;-142.57;100.00;68379.81;5060662;28;20589;-79
2022/09/15 04:31:57;;;;;;;44.67;36.03;;;;;;;-142.57;100.00;68379.81;5056753;28;20033;-80
2022/09/15 04:34:23;;;;;;;48.05;35.70;;;;;;;-142.57;100.00;68379.81;5051655;28;20096;-79
2022/09/15 04:36:49;;;;;;;47.03;38.03;;;;;;;-142.57;100.00;68379.81;5051625;28;20097;-80
2022/09/15 04:39:14;;;;;;;42.38;36.17;;;;;;;-142.57;100.00;68379.81;5042537;28;20020;-80
2022/09/15 04:41:40;;;;;;;41.55;34.28;;;;;;;-142.57;100.00;68379.81;5050045;28;20039;-78
2022/09/15 04:44:05;;;;;;;52.90;39.15;;;;;;;-142.57;100.00;68379.81;5051362;28;20082;-80
2022/09/15 04:46:30;;;;;;;43.80;37.03;;;;;;;-142.57;100.00;68379.81;5050165;28;20551;-78
2022/09/15 04:48:56;;;;;;;48.72;38.80;;;;;;;-142.57;100.00;68379.81;5050714;28;20038;-81
2022/09/15 04:51:22;;;;;;;47.13;38.50;;;;;;;-142.57;100.00;68379.81;5056114;28;20032;-80
2022/09/15 04:53:47;;;;;;;50.53;38.63;;;;;;;-142.57;100.00;68379.81;5056285;28;20029;-79
2022/09/15 04:56:20;;;;;;;48.60;39.25;;;;;;;-142.57;100.00;68379.81;5057060;28;20479;-80
2022/09/15 04:58:51;;;;;;;55.28;39.03;;;;;;;-142.57;100.00;68379.81;5056818;28;20035;-80
2022/09/15 05:01:22;;;;;;;51.00;38.10;;;;;;;-142.57;100.00;68379.81;5059046;28;20483;-81
2022/09/15 05:03:48;;;;;;;47.53;38.58;;;;;;;-142.57;100.00;68379.81;5059935;28;20098;-79
2022/09/15 05:06:15;;;;;;;53.78;40.35;;;;;;;-142.57;100.00;68379.81;5057648;28;20029;-80
2022/09/15 05:08:41;;;;;;;53.45;40.88;;;;;;;-142.57;100.00;68379.81;5046074;28;20028;-80
2022/09/15 05:11:10;;;;;;;53.30;40.88;;;;;;;-142.57;100.00;68379.81;5057488;28;20037;-80
2022/09/15 05:13:36;;;;;;;53.10;42.60;;;;;;;-142.57;100.00;68379.81;5045839;28;20027;-81
2022/09/15 05:16:11;;;;;;;66.47;42.42;;;;;;;-142.57;100.00;68379.81;5055234;28;20544;-79
2022/09/15 05:18:37;;;;;;;51.35;40.65;;;;;;;-142.57;100.00;68379.81;5057884;28;20116;-79
2022/09/15 05:21:04;;;;;;;57.40;43.53;;;;;;;-142.57;100.00;68379.81;5057988;28;20033;-80
2022/09/15 05:23:30;;;;;;;56.25;41.72;;;;;;;-142.57;100.00;68379.81;5066700;28;20029;-80
2022/09/15 05:25:56;;;;;;;62.85;43.90;;;;;;;-142.57;100.00;68379.81;5042384;28;20036;-79
2022/09/15 05:28:23;;;;;;;62.42;42.80;;;;;;;-142.57;100.00;68379.81;5060492;28;20043;-82
2022/09/15 05:30:51;;;;;;;61.58;46.67;;;;;;;-142.57;100.00;68379.81;5076869;28;20104;-79
2022/09/15 05:33:17;;;;;;;56.58;45.40;;;;;;;-142.57;100.00;68379.81;5074079;28;20043;-79
2022/09/15 05:35:59;;;;;;;63.35;44.70;;;;;;;-142.57;100.00;68379.81;5069004;28;20033;-79
2022/09/15 05:38:30;;;;;;;55.53;45.03;;;;;;;-142.57;100.00;68379.81;5055138;28;20021;-80
2022/09/15 05:41:12;;;;;;;63.38;45.80;;;;;;;-142.57;100.00;68379.81;5057247;28;20072;-77
2022/09/15 05:43:38;;;;;;;62.65;47.63;;;;;;;-142.57;100.00;68379.81;5057133;28;20036;-79
2022/09/15 05:46:05;;;;;;;65.43;47.85;;;;;;;-142.57;100.00;68379.81;5089537;28;20490;-81
2022/09/15 05:48:30;;;;;;;64.97;45.92;;;;;;;-142.57;100.00;68379.81;5019584;28;20122;-80
2022/09/15 05:50:57;;;;;;;56.85;45.08;;;;;;;-142.57;100.00;68379.81;5015962;28;20930;-79
2022/09/15 05:53:22;;;;;;;58.83;47.13;;;;;;;-142.57;100.00;68379.81;5000795;28;20032;-79
2022/09/15 05:55:48;;;;;;;60.30;47.20;;;;;;;-142.57;100.00;68379.81;5017623;28;20036;-79
2022/09/15 05:58:13;;;;;;;60.83;47.47;;;;;;;-142.57;100.00;68379.81;5016224;28;20127;-78
2022/09/15 06:00:40;;;;;;;56.80;45.03;;;;;;;-142.57;100.00;68379.81;5034639;28;20106;-80
2022/09/15 06:03:06;;;;;;;54.63;45.78;;;;;;;-142.57;100.00;68379.81;5014668;28;20021;-81
2022/09/15 06:05:32;;;;;;;58.00;46.25;;;;;;;-142.57;100.00;68379.81;5044846;28;20036;-81
2022/09/15 06:07:58;;;;;;;60.83;45.45;;;;;;;-142.57;100.00;68379.81;5023441;28;20130;-78
2022/09/15 06:10:23;;;;;;;55.25;42.90;;;;;;;-142.57;100.00;68379.81;5014825;28;20021;-82
2022/09/15 06:12:52;;;;;;;58.60;45.13;;;;;;;-142.57;100.00;68379.81;5017246;28;20139;-81
2022/09/15 06:15:18;;;;;;;64.60;45.63;;;;;;;-142.57;100.00;68379.81;5000936;28;20049;-82
2022/09/15 06:17:43;;;;;;;66.18;46.50;;;;;;;-142.57;100.00;68379.81;5011498;28;20100;-81
2022/09/15 06:20:09;;;;;;;60.72;42.85;;;;;;;-142.57;100.00;68379.81;5014517;28;20021;-82
2022/09/15 06:22:34;;;;;;;61.38;45.42;;;;;;;-142.57;100.00;68379.81;5017877;28;20051;-81
2022/09/15 06:24:59;;;;;;;53.38;44.58;;;;;;;-142.57;100.00;68379.81;5016444;28;20037;-79
2022/09/15 06:27:25;;;;;;;61.42;44.90;;;;;;;-142.57;100.00;68379.81;5016117;28;20029;-79
2022/09/15 06:29:50;;;;;;;63.38;44.20;;;;;;;-142.57;100.00;68379.81;5031742;28;20086;-79
2022/09/15 06:32:16;;;;;;;63.42;43.53;;;;;;;-142.57;100.00;68379.81;5033046;28;20029;-79
2022/09/15 06:34:41;;;;;;;51.35;42.60;;;;;;;-142.57;100.00;68379.81;5037388;28;20037;-78
2022/09/15 06:37:07;;;;;;;61.92;45.67;;;;;;;-142.57;100.00;68379.81;5034096;28;20403;-78
2022/09/15 06:39:32;;;;;;;55.53;43.25;;;;;;;-142.57;100.00;68379.81;5042782;28;20090;-79
2022/09/15 06:41:57;;;;;;;56.90;44.08;;;;;;;-142.57;100.00;68379.81;5034297;28;20033;-78
2022/09/15 06:44:23;;;;;;;51.22;43.10;;;;;;;-142.57;100.00;68379.81;5043981;28;20029;-78
2022/09/15 06:46:49;;;;;;;56.03;44.20;;;;;;;-142.57;100.00;68379.81;5038817;28;20024;-78
2022/09/15 06:49:15;;;;;;;53.78;45.35;;;;;;;-142.57;100.00;68379.81;5034565;28;20029;-78
2022/09/15 06:51:40;;;;;;;47.00;41.03;;;;;;;-142.57;100.00;68379.81;5031751;28;20194;-78
2022/09/15 06:54:06;;;;;;;50.28;40.65;;;;;;;-142.57;100.00;68379.81;5031129;28;20033;-78
2022/09/15 06:56:32;;;;;;;55.42;42.83;;;;;;;-142.57;100.00;68379.81;5034080;28;20029;-78
2022/09/15 06:58:57;;;;;;;53.25;41.33;;;;;;;-142.57;100.00;68379.81;5044241;28;20789;-78
2022/09/15 07:01:27;;;;;;;48.85;40.83;;;;;;;-142.57;100.00;68379.81;5038290;28;20459;-78
2022/09/15 07:03:53;;;;;;;49.10;41.05;;;;;;;-142.57;100.00;68379.81;5028913;28;20687;-78
2022/09/15 07:06:18;;;;;;;48.83;40.13;;;;;;;-142.57;100.00;68379.81;5015538;28;20033;-77
2022/09/15 07:08:45;;;;;;;48.75;39.03;;;;;;;-142.57;100.00;68379.81;5034995;28;20013;-78
2022/09/15 07:11:11;;;;;;;50.90;39.63;;;;;;;-142.57;100.00;68379.81;5034546;28;20033;-77
2022/09/15 07:13:36;;;;;;;48.22;40.08;;;;;;;-142.57;100.00;68379.81;5035384;28;20045;-77
2022/09/15 07:16:04;;;;;;;54.70;41.85;;;;;;;-142.57;100.00;68379.81;5033237;28;20021;-78
2022/09/15 07:18:30;;;;;;;46.38;39.22;;;;;;;-142.57;100.00;68379.81;5030825;28;20031;-79
2022/09/15 07:21:01;;;;;;;53.85;38.65;;;;;;;-142.57;100.00;68379.81;5032725;28;20038;-77
2022/09/15 07:23:27;;;;;;;48.70;40.30;;;;;;;-142.57;100.00;68379.81;5066274;28;20807;-77
2022/09/15 07:26:07;;;;;;;48.45;39.05;;;;;;;-142.57;100.00;68379.81;5037307;28;20036;-76
2022/09/15 07:28:33;;;;;;;42.13;36.60;;;;;;;-142.57;100.00;68379.81;5034221;28;20033;-76
2022/09/15 07:30:58;;;;;;;49.78;40.13;;;;;;;-142.57;100.00;68379.81;5037580;28;20509;-77
2022/09/15 07:33:24;;;;;;;47.97;37.20;;;;;;;-142.57;100.00;68379.81;5034989;28;20033;-78
2022/09/15 07:35:49;;;;;;;40.97;35.50;;;;;;;-142.57;100.00;68379.81;5035719;28;20142;-76
2022/09/15 07:38:15;;;;;;;47.63;34.97;;;;;;;-142.57;100.00;68379.81;5033751;28;20029;-74
2022/09/15 07:40:40;;;;;;;47.47;37.58;;;;;;;-142.57;100.00;68379.81;5034340;28;20140;-75
2022/09/15 07:43:06;;;;;;;42.20;34.80;;;;;;;-142.57;100.00;68379.81;5032846;28;20644;-76
2022/09/15 07:45:31;;;;;;;42.92;35.13;;;;;;;-142.57;100.00;68379.81;5046717;28;20040;-76
2022/09/15 07:47:57;;;;;;;46.35;38.17;;;;;;;-142.57;100.00;68379.81;5029213;28;20037;-76
2022/09/15 07:50:22;;;;;;;45.40;38.40;;;;;;;-142.57;100.00;68379.81;5026914;28;20044;-76
2022/09/15 07:52:47;;;;;;;43.60;36.08;;;;;;;-142.57;100.00;68379.81;5031048;28;20029;-78
2022/09/15 07:55:13;;;;;;;47.10;37.67;;;;;;;-142.57;100.00;68379.81;5029925;28;20035;-80
2022/09/15 07:57:38;;;;;;;40.05;32.17;;;;;;;-142.57;100.00;68379.81;5034645;28;20546;-77
2022/09/15 08:00:04;;;;;;;45.53;33.17;;;;;;;-142.57;100.00;68379.81;5035282;28;20028;-75
2022/09/15 08:02:30;;;;;;;39.70;34.10;;;;;;;-142.57;100.00;68379.81;5033608;28;20047;-76
2022/09/15 08:04:56;;;;;;;41.25;34.25;;;;;;;-142.57;100.00;68379.81;5034802;28;20025;-76
2022/09/15 08:07:22;;;;;;;38.95;34.42;;;;;;;-142.57;100.00;68379.81;5023096;28;20157;-77
2022/09/15 08:09:48;;;;;;;39.75;31.88;;;;;;;-142.57;100.00;68379.81;5038395;28;20039;-77
2022/09/15 08:12:13;;;;;;;44.78;34.30;;;;;;;-142.57;100.00;68379.81;5010356;28;20033;-75
2022/09/15 08:14:38;;;;;;;41.03;33.13;;;;;;;-142.57;100.00;68379.81;5035219;28;20118;-75
2022/09/15 08:17:04;;;;;;;40.83;35.13;;;;;;;-142.57;100.00;68379.81;5034213;28;20788;-75
2022/09/15 08:19:31;;;;;;;45.58;34.38;;;;;;;-142.57;100.00;68379.81;5030165;28;20043;-75
2022/09/15 08:21:57;;;;;;;35.05;31.52;;;;;;;-142.57;100.00;68379.81;5022511;28;20068;-74
2022/09/15 08:24:22;;;;;;;36.45;30.02;;;;;;;-142.57;100.00;68379.81;5025889;28;20033;-76
2022/09/15 08:26:48;;;;;;;40.63;30.05;;;;;;;-142.57;100.00;68379.81;5037755;28;20911;-77
2022/09/15 08:29:14;;;;;;;39.50;30.10;;;;;;;-142.57;100.00;68379.81;5036858;28;20036;-76
2022/09/15 08:31:39;;;;;;;37.78;28.73;;;;;;;-142.57;100.00;68379.81;5020202;28;20029;-76
2022/09/15 08:34:05;;;;;;;35.88;28.60;;;;;;;-142.57;100.00;68379.81;5026501;28;20057;-76
2022/09/15 08:36:34;;;;;;;27.40;23.95;;;;;;;-142.57;100.00;68379.81;5032502;28;20138;-75
2022/09/15 08:38:59;;;;;;;27.00;24.23;;;;;;;-142.57;100.00;68379.81;5033976;28;20495;-77
2022/09/15 08:41:31;;;;;;;29.52;22.23;;;;;;;-142.57;100.00;68379.81;5038311;28;20043;-77
2022/09/15 08:44:01;;;;;;;27.33;22.95;;;;;;;-142.57;100.00;68379.81;5035210;28;20103;-77
2022/09/15 08:46:34;;;;;;;26.50;21.20;;;;;;;-142.57;100.00;68379.81;5034967;28;20108;-77
2022/09/15 08:49:25;;;;;;;25.30;19.67;;;;;;;-142.57;100.00;68379.81;5052473;28;20794;-78
2022/09/15 08:51:51;;;;;;;29.15;23.38;;;;;;;-142.57;100.00;68379.81;5028439;28;20037;-77
2022/09/15 08:54:28;;;;;;;30.27;24.92;;;;;;;-142.57;100.00;68379.81;5028245;28;20040;-77
2022/09/15 08:56:55;;;;;;;31.30;23.70;;;;;;;-142.57;100.00;68379.81;5028195;28;20135;-78
2022/09/15 08:59:20;;;;;;;26.90;22.73;;;;;;;-142.57;100.00;68379.81;5029773;28;20032;-77
2022/09/15 09:01:54;;;;;;;27.70;22.20;;;;;;;-142.57;100.00;68379.81;5042225;28;20036;-77
2022/09/15 09:04:31;;;;;;;22.77;20.17;;;;;;;-142.57;100.00;68379.81;5029076;28;20128;-76
2022/09/15 09:07:15;;;;;;;27.08;20.95;;;;;;;-142.57;100.00;68379.81;5021222;28;20029;-77
2022/09/15 09:10:14;;;;;;;25.25;20.77;;;;;;;-142.57;100.00;68379.81;5022268;28;20044;-78
2022/09/15 09:12:40;;;;;;;34.90;20.67;;;;;;;-142.57;100.00;68379.81;5047834;28;20029;-77
2022/09/15 09:15:30;;;;;;;27.27;20.55;;;;;;;-142.57;100.00;68379.81;5028408;28;20036;-78
2022/09/15 09:18:32;;;;;;;23.25;20.13;;;;;;;-142.57;100.00;68379.81;5024887;28;20419;-76
2022/09/15 09:21:04;;;;;;;23.25;18.00;;;;;;;-142.57;100.00;68379.81;5034344;28;20870;-76
2022/09/15 09:23:32;;;;;;;18.55;16.15;;;;;;;-142.57;100.00;68379.81;5032978;28;20294;-76
2022/09/15 09:25:58;;;;;;;19.77;17.38;;;;;;;-142.57;100.00;68379.81;5031114;28;20029;-77
2022/09/15 09:28:26;;;;;;;18.13;15.65;;;;;;;-142.57;100.00;68379.81;5031082;28;20485;-77
2022/09/15 09:30:51;;;;;;;18.17;16.27;;;;;;;-142.57;100.00;68379.81;5026844;28;20132;-77
2022/09/15 09:33:31;;;;;;;20.48;18.20;;;;;;;-142.57;100.00;68379.81;5030205;28;20039;-75
2022/09/15 09:36:00;;;;;;;20.58;17.45;;;;;;;-142.57;100.00;68379.81;5025596;28;20067;-74
2022/09/15 09:38:35;;;;;;;23.50;16.20;;;;;;;-142.57;100.00;68379.81;5025060;28;20083;-76
2022/09/15 09:41:01;;;;;;;17.48;14.80;;;;;;;-142.57;100.00;68379.81;5027895;28;20838;-76
2022/09/15 09:43:27;;;;;;;25.52;15.52;;;;;;;-142.57;100.00;68379.81;5064185;28;20033;-76
2022/09/15 09:45:53;;;;;;;20.52;14.70;;;;;;;-142.57;100.00;68379.81;5011407;28;20028;-75
2022/09/15 09:48:21;;;;;;;20.80;15.65;;;;;;;-142.57;100.00;68379.81;5028079;28;20774;-77
2022/09/15 09:50:48;;;;;;;15.32;11.95;;;;;;;-142.57;100.00;68379.81;5040576;28;20032;-77
2022/09/15 09:53:25;;;;;;;13.63;11.43;;;;;;;-142.57;100.00;68379.81;5029304;28;20033;-77
2022/09/15 09:55:53;;;;;;;14.25;9.48;;;;;;;-142.57;100.00;68379.81;5029748;28;20039;-77
2022/09/15 09:58:21;;;;;;;9.60;8.13;;;;;;;-142.57;100.00;68379.81;5023251;28;20028;-76
2022/09/15 10:00:47;;;;;;;12.50;8.15;;;;;;;-142.57;100.00;68379.81;5025226;28;20056;-76
2022/09/15 10:03:24;;;;;;;13.52;9.13;;;;;;;-142.57;100.00;68379.81;5027924;28;20072;-77
2022/09/15 10:06:01;;;;;;;13.15;9.23;;;;;;;-142.57;100.00;68379.81;5029330;28;20037;-77
2022/09/15 10:08:27;;;;;;;10.20;8.27;;;;;;;-142.57;100.00;68379.81;5063349;28;20023;-78
2022/09/15 10:10:54;;;;;;;16.10;9.35;;;;;;;-142.57;100.00;68379.81;5042961;28;20858;-77
2022/09/15 10:13:20;;;;;;;11.15;8.55;;;;;;;-142.57;100.00;68379.81;5029278;28;20935;-76
2022/09/15 10:15:52;;;;;;;11.73;6.57;;;;;;;-142.57;100.00;68379.81;5032135;28;20033;-77
2022/09/15 10:18:35;;;;;;;12.13;6.68;;;;;;;-142.57;100.00;68379.81;5023473;28;20081;-76
2022/09/15 10:21:06;;;;;;;11.90;5.82;;;;;;;-142.57;100.00;68379.81;5026906;28;20025;-76
2022/09/15 10:23:33;;;;;;;9.27;5.90;;;;;;;-142.57;100.00;68379.81;5038202;28;20889;-74
2022/09/15 10:26:16;;;;;;;9.68;4.15;;;;;;;-142.57;100.00;68379.81;5020763;28;20040;-75
2022/09/15 10:28:42;;;;;;;7.40;3.50;;;;;;;-142.57;100.00;68379.81;5019982;28;20041;-76
2022/09/15 10:31:10;;;;;;;6.32;3.58;;;;;;;-142.57;100.00;68379.81;5031114;28;20029;-75
2022/09/15 10:33:37;;;;;;;8.55;4.15;;;;;;;-142.57;100.00;68379.81;5028753;28;20037;-75
2022/09/15 10:36:10;;;;;;;10.45;3.90;;;;;;;-142.57;100.00;68379.81;5027948;28;20047;-76
2022/09/15 10:38:48;;;;;;;10.32;4.20;;;;;;;-142.57;100.00;68379.81;5028403;28;20094;-76
2022/09/15 10:41:30;;;;;;;10.93;3.20;;;;;;;-142.57;100.00;68379.81;5027681;28;20025;-75
2022/09/15 10:44:10;;;;;;;21.52;3.97;;;;;;;-142.57;100.00;68379.81;5031920;28;20039;-74
2022/09/15 10:46:49;;;;;;;6.32;2.80;;;;;;;-142.57;100.00;68379.81;5032406;28;20673;-75
2022/09/15 10:49:37;;;;;;;6.53;3.00;;;;;;;-142.57;100.00;68379.81;5028013;28;20029;-75
2022/09/15 10:52:27;;;;;;;9.57;2.53;;;;;;;-142.57;100.00;68379.81;5007449;28;20041;-75
2022/09/15 10:55:30;;;;;;;7.85;1.98;;;;;;;-142.57;100.00;68379.81;5022575;28;20033;-74
2022/09/15 10:58:40;;;;;;;5.10;2.00;;;;;;;-142.57;100.00;68379.81;5041681;28;20029;-73
2022/09/15 11:01:29;;;;;;;3.28;1.58;;;;;;;-142.57;100.00;68379.81;5017977;28;20060;-73
2022/09/15 11:04:06;;;;;;;4.95;1.70;;;;;;;-142.57;100.00;68379.81;5008394;28;20028;-76
2022/09/15 11:06:42;;;;;;;6.38;2.30;;;;;;;-142.57;100.00;68379.81;5022410;28;20044;-73